Time;durP1;ratioP1;P1;durP2;ratioP2;P2;SDS_P1;SDS_P2;PMS_P1;PMS_P2;Temp;Humidity;BMP_temperature;BMP_pressure;BME280_temperature;BME280_humidity;BME280_pressure;Samples;Min_cycle;Max_cycle;Signal;HPM_P1;HPM_P2
2023/03/16 00:00:53;;;;;;;15.47;13.00;;;;;;;;;;5133846;27;20795;-77
2023/03/16 00:06:26;;;;;;;14.10;12.87;;;;;;;;;;5129858;27;20465;-76
2023/03/16 00:08:57;;;;;;;15.80;14.30;;;;;;;;;;5133751;27;20933;-77
2023/03/16 00:11:32;;;;;;;15.70;13.70;;;;;;;;;;5134162;27;20452;-77
2023/03/16 00:14:09;;;;;;;16.77;15.17;;;;;;;;;;5133310;27;20564;-77
2023/03/16 00:17:01;;;;;;;17.10;15.40;;;;;;;;;;5134562;27;20454;-77
2023/03/16 00:19:34;;;;;;;17.10;14.77;;;;;;;;;;5134873;27;20446;-77
2023/03/16 00:22:08;;;;;;;17.83;15.30;;;;;;;;;;5134912;27;20524;-78
2023/03/16 00:24:42;;;;;;;17.10;15.50;;;;;;;;;;5134669;27;20819;-76
2023/03/16 00:27:18;;;;;;;17.07;15.37;;;;;;;;;;5134250;27;20481;-76
2023/03/16 00:29:58;;;;;;;18.27;16.33;;;;;;;;;;5134565;27;20758;-76
2023/03/16 00:32:41;;;;;;;19.40;16.80;;;;;;;;;;5134813;27;20451;-77
2023/03/16 00:35:15;;;;;;;16.97;15.17;;;;;;;;;;5135101;27;20465;-77
2023/03/16 00:37:50;;;;;;;21.37;17.17;;;;;;;;;;5134695;27;20446;-78
2023/03/16 00:40:25;;;;;;;17.00;15.30;;;;;;;;;;5136419;28;20445;-77
2023/03/16 00:42:56;;;;;;;16.83;15.07;;;;;;;;;;5137759;28;20466;-77
2023/03/16 00:45:37;;;;;;;19.23;16.63;;;;;;;;;;5137672;28;20470;-76
2023/03/16 00:48:07;;;;;;;21.90;17.07;;;;;;;;;;5138395;27;20405;-77
2023/03/16 00:50:35;;;;;;;19.13;17.30;;;;;;;;;;5135613;27;20492;-76
2023/03/16 00:53:13;;;;;;;19.97;18.00;;;;;;;;;;5135312;28;20517;-77
2023/03/16 00:55:46;;;;;;;19.43;17.40;;;;;;;;;;5136453;27;20446;-77
2023/03/16 00:58:41;;;;;;;22.00;19.70;;;;;;;;;;5137559;28;20438;-76
2023/03/16 01:01:12;;;;;;;20.70;18.03;;;;;;;;;;5138138;27;20953;-77
2023/03/16 01:03:53;;;;;;;19.33;17.00;;;;;;;;;;5138016;28;20506;-77
2023/03/16 01:06:22;;;;;;;19.40;17.30;;;;;;;;;;5138480;27;20477;-77
2023/03/16 01:09:04;;;;;;;21.73;18.60;;;;;;;;;;5138747;27;20450;-77
2023/03/16 01:11:35;;;;;;;19.07;16.97;;;;;;;;;;5138504;27;20534;-77
2023/03/16 01:14:04;;;;;;;20.47;18.27;;;;;;;;;;5137982;28;20462;-77
2023/03/16 01:16:56;;;;;;;18.10;16.23;;;;;;;;;;5138593;27;20426;-76
2023/03/16 01:19:27;;;;;;;19.67;17.80;;;;;;;;;;5137703;27;20456;-77
2023/03/16 01:21:56;;;;;;;19.63;17.70;;;;;;;;;;5136651;27;20485;-77
2023/03/16 01:24:24;;;;;;;21.20;17.37;;;;;;;;;;5137507;27;20493;-77
2023/03/16 01:27:06;;;;;;;21.60;19.40;;;;;;;;;;5139690;27;20480;-78
2023/03/16 01:29:51;;;;;;;22.17;19.40;;;;;;;;;;5139437;27;20442;-79
2023/03/16 01:32:28;;;;;;;21.47;18.77;;;;;;;;;;5138870;27;20509;-76
2023/03/16 01:35:05;;;;;;;20.20;17.67;;;;;;;;;;5137637;27;20493;-76
2023/03/16 01:37:43;;;;;;;21.13;18.47;;;;;;;;;;5140285;27;20476;-77
2023/03/16 01:40:17;;;;;;;20.63;18.43;;;;;;;;;;5138904;27;20433;-78
2023/03/16 01:43:09;;;;;;;20.73;18.57;;;;;;;;;;5139236;27;20476;-77
2023/03/16 01:46:13;;;;;;;20.73;18.13;;;;;;;;;;5155139;27;20536;-77
2023/03/16 01:52:01;;;;;;;19.57;17.60;;;;;;;;;;5095759;28;21027;-78
2023/03/16 01:54:34;;;;;;;20.20;18.10;;;;;;;;;;5094989;28;20665;-78
2023/03/16 01:57:08;;;;;;;20.83;18.63;;;;;;;;;;5094989;28;20448;-76
2023/03/16 01:59:52;;;;;;;21.57;18.67;;;;;;;;;;5095184;28;20444;-77
2023/03/16 02:02:27;;;;;;;23.27;19.07;;;;;;;;;;5095103;28;21037;-77
2023/03/16 02:05:07;;;;;;;18.77;16.83;;;;;;;;;;5094241;28;20468;-77
2023/03/16 02:07:43;;;;;;;24.60;18.20;;;;;;;;;;5152599;27;20501;-77
2023/03/16 02:10:26;;;;;;;20.70;18.57;;;;;;;;;;5158399;27;20492;-77
2023/03/16 02:12:56;;;;;;;22.27;18.70;;;;;;;;;;5153307;27;20493;-77
2023/03/16 02:15:29;;;;;;;21.27;18.80;;;;;;;;;;5140649;27;20564;-77
2023/03/16 02:18:03;;;;;;;21.20;18.93;;;;;;;;;;5138979;27;20442;-78
2023/03/16 02:20:36;;;;;;;24.83;19.93;;;;;;;;;;5139485;27;20441;-78
2023/03/16 02:23:17;;;;;;;20.27;18.17;;;;;;;;;;5139623;27;20523;-78
2023/03/16 02:25:51;;;;;;;21.03;18.13;;;;;;;;;;5142548;27;20595;-76
2023/03/16 02:28:29;;;;;;;22.53;20.23;;;;;;;;;;5142011;27;20821;-76
2023/03/16 02:31:18;;;;;;;23.73;18.93;;;;;;;;;;5139964;27;20449;-76
2023/03/16 02:33:56;;;;;;;22.83;19.13;;;;;;;;;;5139388;27;20462;-78
2023/03/16 02:36:29;;;;;;;21.67;19.33;;;;;;;;;;5139061;27;20456;-76
2023/03/16 02:41:46;;;;;;;20.23;18.13;;;;;;;;;;5135573;27;20442;-77
2023/03/16 02:44:23;;;;;;;22.23;18.90;;;;;;;;;;5139209;27;20589;-77
2023/03/16 02:47:03;;;;;;;22.23;19.43;;;;;;;;;;5138455;27;20460;-77
2023/03/16 02:49:44;;;;;;;21.63;19.53;;;;;;;;;;5138793;27;20454;-77
2023/03/16 02:52:16;;;;;;;20.70;18.50;;;;;;;;;;5139202;27;20774;-77
2023/03/16 02:54:49;;;;;;;21.23;18.03;;;;;;;;;;5138768;27;20503;-77
2023/03/16 02:57:28;;;;;;;21.00;18.80;;;;;;;;;;5139117;27;20472;-78
2023/03/16 03:00:10;;;;;;;20.20;18.10;;;;;;;;;;5138730;27;20457;-77
2023/03/16 03:02:41;;;;;;;26.43;18.90;;;;;;;;;;5138666;27;20504;-77
2023/03/16 03:05:14;;;;;;;20.77;18.67;;;;;;;;;;5139063;27;20518;-77
2023/03/16 03:07:52;;;;;;;20.67;18.47;;;;;;;;;;5138467;27;20450;-77
2023/03/16 03:10:32;;;;;;;20.40;17.43;;;;;;;;;;5140048;27;20448;-77
2023/03/16 03:13:12;;;;;;;20.70;18.47;;;;;;;;;;5140775;27;20984;-78
2023/03/16 03:15:49;;;;;;;18.83;16.27;;;;;;;;;;5120465;27;20778;-78
2023/03/16 03:18:41;;;;;;;18.83;16.80;;;;;;;;;;5138722;27;20520;-77
2023/03/16 03:21:17;;;;;;;20.43;18.20;;;;;;;;;;5142181;27;20521;-78
2023/03/16 03:23:50;;;;;;;18.80;16.60;;;;;;;;;;5142076;27;20510;-76
2023/03/16 03:26:29;;;;;;;19.50;17.50;;;;;;;;;;5144361;27;20526;-77
2023/03/16 03:29:02;;;;;;;19.13;17.03;;;;;;;;;;5144645;27;20495;-77
2023/03/16 03:31:45;;;;;;;21.37;17.90;;;;;;;;;;5143596;27;20449;-77
2023/03/16 03:34:18;;;;;;;18.80;16.80;;;;;;;;;;5142736;27;20476;-78
2023/03/16 03:37:04;;;;;;;20.13;17.43;;;;;;;;;;5143943;27;20869;-78
2023/03/16 03:39:39;;;;;;;21.83;18.17;;;;;;;;;;5136249;27;20902;-79
2023/03/16 03:42:11;;;;;;;22.30;17.97;;;;;;;;;;5148801;27;21061;-77
2023/03/16 03:44:45;;;;;;;21.63;19.23;;;;;;;;;;5151349;27;20487;-76
2023/03/16 03:47:13;;;;;;;23.10;18.53;;;;;;;;;;5152911;27;20458;-77
2023/03/16 03:49:42;;;;;;;21.10;18.80;;;;;;;;;;5149779;27;20430;-78
2023/03/16 03:52:16;;;;;;;20.40;17.13;;;;;;;;;;5138178;27;20454;-79
2023/03/16 03:54:49;;;;;;;21.23;17.30;;;;;;;;;;5135899;27;20466;-77
2023/03/16 03:57:18;;;;;;;19.73;17.70;;;;;;;;;;5136563;27;20882;-77
2023/03/16 03:59:57;;;;;;;23.33;18.27;;;;;;;;;;5138213;27;20832;-78
2023/03/16 04:02:28;;;;;;;20.40;17.40;;;;;;;;;;5135295;27;20976;-77
2023/03/16 04:05:10;;;;;;;21.13;17.73;;;;;;;;;;5135255;27;20526;-77
2023/03/16 04:07:49;;;;;;;20.97;18.13;;;;;;;;;;5135118;27;20899;-78
2023/03/16 04:10:23;;;;;;;20.33;18.00;;;;;;;;;;5135063;27;20433;-76
2023/03/16 04:13:13;;;;;;;19.53;16.87;;;;;;;;;;5136026;27;20848;-76
2023/03/16 04:15:49;;;;;;;19.53;17.43;;;;;;;;;;5133859;27;20966;-77
2023/03/16 04:18:18;;;;;;;23.20;17.93;;;;;;;;;;5133465;27;20799;-77
2023/03/16 04:21:00;;;;;;;18.77;16.53;;;;;;;;;;5133073;27;20949;-77
2023/03/16 04:23:35;;;;;;;23.23;18.20;;;;;;;;;;5133243;27;20856;-77
2023/03/16 04:26:07;;;;;;;20.03;18.00;;;;;;;;;;5134478;27;20442;-78
2023/03/16 04:28:40;;;;;;;19.80;16.97;;;;;;;;;;5134788;27;20431;-76
2023/03/16 04:31:13;;;;;;;19.27;17.07;;;;;;;;;;5135432;27;20481;-77
2023/03/16 04:33:46;;;;;;;20.17;17.43;;;;;;;;;;5133762;27;20549;-77
2023/03/16 04:39:10;;;;;;;22.60;17.47;;;;;;;;;;5134624;27;20800;-78
2023/03/16 04:41:43;;;;;;;20.10;16.67;;;;;;;;;;5138313;27;20534;-77
2023/03/16 04:44:30;;;;;;;19.83;17.73;;;;;;;;;;5139464;27;20517;-77
2023/03/16 04:47:14;;;;;;;;;;;;;;;;;;;;;
2023/03/16 04:52:43;;;;;;;21.87;19.30;;;;;;;;;;5133362;27;20428;-78
2023/03/16 04:55:24;;;;;;;23.03;18.47;;;;;;;;;;5137181;27;20462;-77
2023/03/16 04:58:00;;;;;;;23.40;18.63;;;;;;;;;;5136557;27;20441;-77
2023/03/16 05:00:36;;;;;;;22.00;19.47;;;;;;;;;;5142013;27;20455;-76
2023/03/16 05:03:28;;;;;;;21.23;18.20;;;;;;;;;;5142881;27;21080;-79
2023/03/16 05:05:59;;;;;;;19.90;17.87;;;;;;;;;;5143989;27;20442;-78
2023/03/16 05:08:41;;;;;;;23.00;19.07;;;;;;;;;;5143383;27;20503;-76
2023/03/16 05:11:18;;;;;;;23.10;19.17;;;;;;;;;;5142312;27;20477;-77
2023/03/16 05:13:55;;;;;;;23.07;20.10;;;;;;;;;;5142864;27;20469;-77
2023/03/16 05:16:35;;;;;;;22.43;20.03;;;;;;;;;;5139798;27;21084;-76
2023/03/16 05:19:07;;;;;;;22.30;18.90;;;;;;;;;;5121220;27;20822;-76
2023/03/16 05:21:37;;;;;;;22.07;19.67;;;;;;;;;;5122097;28;20502;-77
2023/03/16 05:24:08;;;;;;;21.50;18.87;;;;;;;;;;5121785;27;20482;-78
2023/03/16 05:26:42;;;;;;;19.87;17.70;;;;;;;;;;5123323;28;20465;-76
2023/03/16 05:32:13;;;;;;;20.10;18.07;;;;;;;;;;5122223;27;20458;-77
2023/03/16 05:34:53;;;;;;;30.80;25.07;;;;;;;;;;5122619;28;20463;-77
2023/03/16 05:37:24;;;;;;;31.40;26.20;;;;;;;;;;5123192;28;21009;-77
2023/03/16 05:40:00;;;;;;;26.07;20.83;;;;;;;;;;5121096;27;20438;-77
2023/03/16 05:42:36;;;;;;;22.60;19.50;;;;;;;;;;5121394;28;20454;-77
2023/03/16 05:45:09;;;;;;;23.47;20.30;;;;;;;;;;5119969;27;20470;-76
2023/03/16 05:47:57;;;;;;;21.20;18.90;;;;;;;;;;5122839;28;20426;-77
2023/03/16 05:50:33;;;;;;;23.67;20.40;;;;;;;;;;5122995;27;20450;-78
2023/03/16 05:53:22;;;;;;;25.70;21.20;;;;;;;;;;5120815;27;20472;-78
2023/03/16 05:56:02;;;;;;;24.17;19.40;;;;;;;;;;5121045;27;20453;-79
2023/03/16 05:58:34;;;;;;;22.17;19.40;;;;;;;;;;5122829;27;20457;-77
2023/03/16 06:01:06;;;;;;;22.87;19.33;;;;;;;;;;5116997;28;20439;-77
2023/03/16 06:03:37;;;;;;;24.00;20.53;;;;;;;;;;5117060;27;20494;-77
2023/03/16 06:06:07;;;;;;;23.90;21.37;;;;;;;;;;5119677;27;20451;-78
2023/03/16 06:08:34;;;;;;;29.40;22.23;;;;;;;;;;5122152;27;20484;-77
2023/03/16 06:11:08;;;;;;;26.00;22.10;;;;;;;;;;5119992;27;20562;-77
2023/03/16 06:13:43;;;;;;;26.40;20.73;;;;;;;;;;5121517;27;20571;-78
2023/03/16 06:16:15;;;;;;;24.67;20.13;;;;;;;;;;5123248;28;20454;-77
2023/03/16 06:18:53;;;;;;;21.20;18.90;;;;;;;;;;5123649;27;20451;-78
2023/03/16 06:21:28;;;;;;;24.40;20.13;;;;;;;;;;5123894;27;20449;-78
2023/03/16 06:24:13;;;;;;;22.13;19.77;;;;;;;;;;5121655;28;20566;-77
2023/03/16 06:26:43;;;;;;;26.50;21.73;;;;;;;;;;5120745;27;20504;-79
2023/03/16 06:29:15;;;;;;;26.87;23.00;;;;;;;;;;5119469;28;20450;-78
2023/03/16 06:35:13;;;;;;;25.93;21.03;;;;;;;;;;5109814;27;20455;-78
2023/03/16 06:37:48;;;;;;;26.97;22.07;;;;;;;;;;5123540;27;20443;-78
2023/03/16 06:40:24;;;;;;;29.80;22.57;;;;;;;;;;5120537;28;20458;-78
2023/03/16 06:42:52;;;;;;;25.10;22.40;;;;;;;;;;5120021;27;20446;-78
2023/03/16 06:45:21;;;;;;;26.93;22.10;;;;;;;;;;5118757;27;20962;-78
2023/03/16 06:47:51;;;;;;;28.23;21.70;;;;;;;;;;5119016;27;20451;-77
2023/03/16 06:50:24;;;;;;;27.80;21.47;;;;;;;;;;5120312;28;20461;-78
2023/03/16 06:55:43;;;;;;;28.20;21.37;;;;;;;;;;5114885;27;20457;-78
2023/03/16 06:58:19;;;;;;;27.53;22.10;;;;;;;;;;5121129;27;20891;-77
2023/03/16 07:00:47;;;;;;;27.80;22.03;;;;;;;;;;5120315;28;20937;-77
2023/03/16 07:06:13;;;;;;;;;;;;;;;;;;;;;
2023/03/16 07:09:04;;;;;;;;;;;;;;;;;;;;;
2023/03/16 07:11:54;;;;;;;26.80;21.07;;;;;;;;;;5117665;28;20434;-78
2023/03/16 07:14:25;;;;;;;25.97;21.97;;;;;;;;;;5117401;27;21014;-77
2023/03/16 07:19:48;;;;;;;24.87;19.77;;;;;;;;;;5112438;28;20427;-77
2023/03/16 07:22:20;;;;;;;24.17;20.00;;;;;;;;;;5115136;27;20462;-77
2023/03/16 07:25:10;;;;;;;23.00;20.33;;;;;;;;;;5115722;28;21000;-78
2023/03/16 07:27:46;;;;;;;23.83;21.23;;;;;;;;;;5095994;27;20462;-78
2023/03/16 07:30:25;;;;;;;24.90;20.33;;;;;;;;;;5115218;27;20446;-77
2023/03/16 07:32:54;;;;;;;22.57;18.97;;;;;;;;;;5116175;27;21019;-77
2023/03/16 07:35:37;;;;;;;22.50;19.33;;;;;;;;;;5120718;28;20470;-77
2023/03/16 07:38:08;;;;;;;22.43;18.13;;;;;;;;;;5137025;27;20866;-77
2023/03/16 07:40:36;;;;;;;22.07;17.93;;;;;;;;;;5143439;27;20454;-77
2023/03/16 07:43:04;;;;;;;21.87;18.10;;;;;;;;;;5143446;27;20442;-77
2023/03/16 07:45:33;;;;;;;24.57;20.77;;;;;;;;;;5142465;27;20470;-77
2023/03/16 07:48:02;;;;;;;20.07;17.93;;;;;;;;;;5144778;27;20427;-77
2023/03/16 07:50:30;;;;;;;20.40;17.87;;;;;;;;;;5144747;27;20438;-77
2023/03/16 07:53:04;;;;;;;20.70;18.00;;;;;;;;;;5138735;27;20525;-78
2023/03/16 07:55:31;;;;;;;22.90;17.80;;;;;;;;;;5131916;27;20441;-76
2023/03/16 07:58:00;;;;;;;19.57;17.40;;;;;;;;;;5130578;27;20490;-78
2023/03/16 08:00:35;;;;;;;19.30;17.30;;;;;;;;;;5130254;27;20933;-77
2023/03/16 08:03:08;;;;;;;19.57;17.57;;;;;;;;;;5130984;27;20452;-76
2023/03/16 08:05:45;;;;;;;17.63;15.80;;;;;;;;;;5131003;27;20465;-78
2023/03/16 08:08:19;;;;;;;19.83;16.40;;;;;;;;;;5130911;27;20453;-77
2023/03/16 08:11:01;;;;;;;17.70;15.50;;;;;;;;;;5131278;27;20453;-77
2023/03/16 08:13:43;;;;;;;18.03;14.30;;;;;;;;;;5131679;27;20874;-77
2023/03/16 08:16:15;;;;;;;17.63;15.20;;;;;;;;;;5131619;27;20937;-77
2023/03/16 08:18:52;;;;;;;15.43;12.80;;;;;;;;;;5131343;27;21028;-78
2023/03/16 08:21:23;;;;;;;13.97;12.43;;;;;;;;;;5131364;27;20936;-77
2023/03/16 08:24:03;;;;;;;16.73;13.63;;;;;;;;;;5131166;27;20478;-78
2023/03/16 08:26:39;;;;;;;13.53;12.10;;;;;;;;;;5130323;27;20986;-77
2023/03/16 08:29:11;;;;;;;14.17;12.67;;;;;;;;;;5130543;27;20548;-78
2023/03/16 08:31:52;;;;;;;15.33;13.73;;;;;;;;;;5129850;28;20499;-78
2023/03/16 08:34:37;;;;;;;16.50;13.83;;;;;;;;;;5129508;27;20482;-78
2023/03/16 08:37:10;;;;;;;14.90;13.50;;;;;;;;;;5130133;27;20454;-77
2023/03/16 08:39:53;;;;;;;15.50;13.90;;;;;;;;;;5130297;27;20550;-78
2023/03/16 08:42:32;;;;;;;14.60;13.20;;;;;;;;;;5131100;27;20472;-77
2023/03/16 08:45:08;;;;;;;11.50;10.40;;;;;;;;;;5131659;27;21165;-78
2023/03/16 08:47:42;;;;;;;18.37;12.10;;;;;;;;;;5132595;27;20449;-78
2023/03/16 08:50:18;;;;;;;12.30;11.13;;;;;;;;;;5134218;27;20448;-79
2023/03/16 08:55:35;;;;;;;12.83;10.70;;;;;;;;;;5139608;27;20522;-76
2023/03/16 08:58:17;;;;;;;11.73;10.40;;;;;;;;;;5144736;28;20449;-77
2023/03/16 09:01:04;;;;;;;11.33;10.33;;;;;;;;;;5139279;27;20438;-77
2023/03/16 09:03:35;;;;;;;11.40;10.30;;;;;;;;;;5139363;27;20474;-78
2023/03/16 09:06:03;;;;;;;10.53;9.53;;;;;;;;;;5134421;27;20474;-78
2023/03/16 09:08:35;;;;;;;10.80;9.80;;;;;;;;;;5136436;27;20882;-79
2023/03/16 09:11:04;;;;;;;10.23;9.23;;;;;;;;;;5135964;27;20474;-77
2023/03/16 09:13:39;;;;;;;11.20;10.07;;;;;;;;;;5138708;28;20462;-77
2023/03/16 09:16:15;;;;;;;10.40;9.47;;;;;;;;;;5137467;27;20449;-78
2023/03/16 09:18:48;;;;;;;21.97;15.37;;;;;;;;;;5118203;28;20446;-77
2023/03/16 09:21:22;;;;;;;15.00;12.47;;;;;;;;;;5117710;28;20946;-79
2023/03/16 09:23:59;;;;;;;10.23;9.30;;;;;;;;;;5117202;28;20852;-79
2023/03/16 09:26:32;;;;;;;9.67;8.77;;;;;;;;;;5114315;27;20806;-78
2023/03/16 09:29:02;;;;;;;10.27;9.27;;;;;;;;;;5113020;27;20455;-76
2023/03/16 09:31:36;;;;;;;7.40;6.80;;;;;;;;;;5111705;28;20451;-79
2023/03/16 09:34:21;;;;;;;8.70;7.90;;;;;;;;;;5111909;27;20960;-78
2023/03/16 09:37:01;;;;;;;8.37;7.60;;;;;;;;;;5103752;27;20443;-77
2023/03/16 09:39:38;;;;;;;8.77;8.07;;;;;;;;;;5111633;28;20442;-78
2023/03/16 09:42:22;;;;;;;6.97;6.37;;;;;;;;;;5111672;27;20474;-78
2023/03/16 09:44:55;;;;;;;7.80;7.00;;;;;;;;;;5112358;28;20478;-79
2023/03/16 09:47:32;;;;;;;7.03;6.43;;;;;;;;;;5115533;28;20538;-78
2023/03/16 09:50:08;;;;;;;8.07;6.93;;;;;;;;;;5115958;28;20435;-78
2023/03/16 09:52:49;;;;;;;9.40;8.37;;;;;;;;;;5115858;28;20549;-78
2023/03/16 09:55:35;;;;;;;8.77;7.97;;;;;;;;;;5115824;27;20644;-78
2023/03/16 09:58:19;;;;;;;7.43;6.70;;;;;;;;;;5115508;27;20450;-77
2023/03/16 10:00:55;;;;;;;6.57;6.07;;;;;;;;;;5115097;27;20954;-77
2023/03/16 10:03:33;;;;;;;7.73;7.10;;;;;;;;;;5114941;27;20459;-77
2023/03/16 10:06:02;;;;;;;8.27;7.57;;;;;;;;;;5115173;28;20478;-78
2023/03/16 10:08:34;;;;;;;7.50;6.80;;;;;;;;;;5123176;27;20477;-77
2023/03/16 10:11:25;;;;;;;7.83;7.20;;;;;;;;;;5135134;27;20458;-77
2023/03/16 10:13:55;;;;;;;8.40;7.60;;;;;;;;;;5134498;27;20470;-77
2023/03/16 10:16:27;;;;;;;8.37;7.67;;;;;;;;;;5135068;27;20452;-78
2023/03/16 10:19:01;;;;;;;10.40;8.03;;;;;;;;;;5134710;27;20446;-76
2023/03/16 10:21:34;;;;;;;7.83;7.23;;;;;;;;;;5135126;27;20450;-77
2023/03/16 10:24:05;;;;;;;9.60;7.57;;;;;;;;;;5134497;27;20482;-77
2023/03/16 10:26:36;;;;;;;8.10;7.40;;;;;;;;;;5134789;27;20937;-77
2023/03/16 10:29:06;;;;;;;6.10;5.60;;;;;;;;;;5135263;27;20423;-78
2023/03/16 10:31:37;;;;;;;6.10;5.60;;;;;;;;;;5136609;27;20438;-77
2023/03/16 10:34:07;;;;;;;6.57;5.97;;;;;;;;;;5136145;27;21049;-77
2023/03/16 10:36:40;;;;;;;6.87;6.10;;;;;;;;;;5136666;27;20967;-77
2023/03/16 10:39:13;;;;;;;7.80;6.83;;;;;;;;;;5137641;27;20481;-78
2023/03/16 10:41:42;;;;;;;7.23;6.53;;;;;;;;;;5135939;27;20507;-77
2023/03/16 10:44:11;;;;;;;8.37;7.40;;;;;;;;;;5136846;27;20505;-77
2023/03/16 10:46:40;;;;;;;7.10;6.50;;;;;;;;;;5138813;27;20433;-77
2023/03/16 10:49:26;;;;;;;6.00;4.30;;;;;;;;;;5136566;27;20474;-78
2023/03/16 10:51:54;;;;;;;5.03;4.63;;;;;;;;;;5137364;27;20457;-78
2023/03/16 10:54:28;;;;;;;5.53;4.00;;;;;;;;;;5136839;27;20807;-78
2023/03/16 10:56:56;;;;;;;4.87;4.33;;;;;;;;;;5136579;27;20441;-78
2023/03/16 10:59:33;;;;;;;4.73;4.40;;;;;;;;;;5142120;27;20452;-79
2023/03/16 11:02:01;;;;;;;6.27;5.70;;;;;;;;;;5143146;27;20812;-77
2023/03/16 11:04:33;;;;;;;10.80;6.23;;;;;;;;;;5133703;27;20526;-77
2023/03/16 11:07:03;;;;;;;7.70;6.33;;;;;;;;;;5133898;27;20506;-78
2023/03/16 11:09:36;;;;;;;5.70;5.20;;;;;;;;;;5133853;27;20456;-77
2023/03/16 11:12:14;;;;;;;15.33;5.70;;;;;;;;;;5134270;27;20450;-77
2023/03/16 11:14:44;;;;;;;8.83;5.33;;;;;;;;;;5147672;27;20568;-76
2023/03/16 11:17:16;;;;;;;7.90;5.93;;;;;;;;;;5126625;27;20859;-77
2023/03/16 11:19:50;;;;;;;8.93;3.97;;;;;;;;;;5138426;27;20540;-78
2023/03/16 11:22:30;;;;;;;7.63;5.03;;;;;;;;;;5137928;27;20452;-77
2023/03/16 11:25:08;;;;;;;7.20;4.60;;;;;;;;;;5147249;27;20522;-78
2023/03/16 11:27:39;;;;;;;4.30;3.93;;;;;;;;;;5134127;27;20457;-79
2023/03/16 11:30:13;;;;;;;4.90;3.90;;;;;;;;;;5134204;27;20981;-77
2023/03/16 11:32:45;;;;;;;13.53;4.90;;;;;;;;;;5133086;27;20452;-77
2023/03/16 11:35:13;;;;;;;5.13;4.10;;;;;;;;;;5134035;27;20462;-77
2023/03/16 11:37:50;;;;;;;4.30;3.63;;;;;;;;;;5133648;27;20493;-77
2023/03/16 11:40:30;;;;;;;6.30;3.57;;;;;;;;;;5133807;27;20872;-78
2023/03/16 11:45:53;;;;;;;5.07;4.50;;;;;;;;;;5122639;27;20458;-77
2023/03/16 11:48:35;;;;;;;3.97;3.57;;;;;;;;;;5133800;27;20432;-78
2023/03/16 11:51:13;;;;;;;4.63;4.23;;;;;;;;;;5134123;27;20449;-77
2023/03/16 11:53:50;;;;;;;4.50;4.07;;;;;;;;;;5134746;27;20474;-77
2023/03/16 11:56:39;;;;;;;3.80;3.40;;;;;;;;;;5134410;27;20430;-77
2023/03/16 11:59:27;;;;;;;4.37;3.97;;;;;;;;;;5135441;27;20446;-78
2023/03/16 12:02:14;;;;;;;3.97;3.57;;;;;;;;;;5093077;28;20946;-77
2023/03/16 12:04:47;;;;;;;3.83;3.53;;;;;;;;;;5116112;27;20463;-76
2023/03/16 12:07:26;;;;;;;4.23;3.83;;;;;;;;;;5114912;28;20458;-77
2023/03/16 12:10:17;;;;;;;7.37;6.67;;;;;;;;;;5115502;27;20480;-78
2023/03/16 12:12:55;;;;;;;4.13;3.83;;;;;;;;;;5116491;27;20574;-77
2023/03/16 12:15:46;;;;;;;9.07;3.87;;;;;;;;;;5115540;27;20989;-75
2023/03/16 12:18:18;;;;;;;4.00;3.73;;;;;;;;;;5114915;27;20500;-77
2023/03/16 12:20:50;;;;;;;3.90;3.60;;;;;;;;;;5113856;27;20831;-77
2023/03/16 12:23:22;;;;;;;7.10;3.50;;;;;;;;;;5113550;28;20652;-78
2023/03/16 12:25:51;;;;;;;3.53;3.30;;;;;;;;;;5113202;27;21008;-77
2023/03/16 12:28:24;;;;;;;5.40;3.90;;;;;;;;;;5113202;27;20443;-77
2023/03/16 12:31:02;;;;;;;4.37;3.80;;;;;;;;;;5113176;27;20447;-77
2023/03/16 12:33:37;;;;;;;4.60;4.20;;;;;;;;;;5113457;27;20577;-77
2023/03/16 12:36:08;;;;;;;16.27;13.90;;;;;;;;;;5113699;27;20484;-76
2023/03/16 12:38:42;;;;;;;5.80;4.50;;;;;;;;;;5113206;27;20949;-77
2023/03/16 12:41:18;;;;;;;3.73;3.43;;;;;;;;;;5113190;27;20474;-78
2023/03/16 12:44:00;;;;;;;4.27;3.87;;;;;;;;;;5112480;27;20498;-78
2023/03/16 12:46:32;;;;;;;4.40;4.00;;;;;;;;;;5112271;27;21019;-78
2023/03/16 12:49:03;;;;;;;3.63;3.30;;;;;;;;;;5113231;27;20537;-77
2023/03/16 12:51:39;;;;;;;4.33;3.90;;;;;;;;;;5113268;27;20451;-77
2023/03/16 12:54:24;;;;;;;4.00;3.70;;;;;;;;;;5113681;27;20470;-77
2023/03/16 12:57:07;;;;;;;4.90;3.80;;;;;;;;;;5114348;27;20446;-78
2023/03/16 13:00:03;;;;;;;4.33;3.47;;;;;;;;;;5115833;27;20863;-78
2023/03/16 13:02:39;;;;;;;3.27;2.97;;;;;;;;;;5115292;28;20451;-79
2023/03/16 13:05:28;;;;;;;3.60;3.30;;;;;;;;;;5114264;27;20969;-78
2023/03/16 13:08:06;;;;;;;6.10;4.27;;;;;;;;;;5111211;27;20446;-77
2023/03/16 13:10:36;;;;;;;12.27;11.00;;;;;;;;;;5114424;27;20439;-76
2023/03/16 13:13:27;;;;;;;4.30;3.90;;;;;;;;;;5114093;27;20836;-77
2023/03/16 13:16:08;;;;;;;4.30;3.90;;;;;;;;;;5099734;27;20497;-79
2023/03/16 13:18:37;;;;;;;7.80;4.50;;;;;;;;;;5113517;27;20461;-77
2023/03/16 13:21:16;;;;;;;5.20;4.10;;;;;;;;;;5115627;27;20439;-77
2023/03/16 13:23:53;;;;;;;5.27;3.80;;;;;;;;;;5116570;28;20906;-77
2023/03/16 13:26:30;;;;;;;4.57;4.00;;;;;;;;;;5116364;28;20530;-79
2023/03/16 13:29:01;;;;;;;5.13;4.37;;;;;;;;;;5115180;27;20456;-76
2023/03/16 13:31:37;;;;;;;4.93;4.20;;;;;;;;;;5115069;27;20477;-78
2023/03/16 13:34:30;;;;;;;5.50;4.33;;;;;;;;;;5115011;28;20574;-77
2023/03/16 13:37:03;;;;;;;8.03;7.30;;;;;;;;;;5115233;27;20886;-78
2023/03/16 13:39:31;;;;;;;4.00;3.60;;;;;;;;;;5115453;28;20965;-79
2023/03/16 13:42:08;;;;;;;4.30;3.90;;;;;;;;;;5115141;28;20945;-79
2023/03/16 13:44:41;;;;;;;4.13;3.73;;;;;;;;;;5116027;27;20475;-76
2023/03/16 13:47:16;;;;;;;4.30;3.90;;;;;;;;;;5115904;27;20552;-77
2023/03/16 13:49:49;;;;;;;15.37;13.80;;;;;;;;;;5116118;27;20442;-75
2023/03/16 13:52:24;;;;;;;4.80;4.37;;;;;;;;;;5116363;28;20811;-77
2023/03/16 13:55:13;;;;;;;;;;;;;;;;;;;;;
2023/03/16 13:57:44;;;;;;;3.83;3.43;;;;;;;;;;5117445;28;20453;-78
2023/03/16 14:00:18;;;;;;;13.23;11.97;;;;;;;;;;5117656;27;20470;-79
2023/03/16 14:02:49;;;;;;;5.67;3.27;;;;;;;;;;5117394;27;20450;-77
2023/03/16 14:05:21;;;;;;;5.57;4.27;;;;;;;;;;5118410;27;20471;-77
2023/03/16 14:08:04;;;;;;;4.33;3.70;;;;;;;;;;5117944;28;20458;-77
2023/03/16 14:10:35;;;;;;;4.03;3.70;;;;;;;;;;5118337;27;20467;-78
2023/03/16 14:13:15;;;;;;;5.57;3.77;;;;;;;;;;5119152;27;20865;-77
2023/03/16 14:15:47;;;;;;;3.77;3.47;;;;;;;;;;5119866;28;20419;-78
2023/03/16 14:18:22;;;;;;;4.40;3.30;;;;;;;;;;5137254;27;20452;-78
2023/03/16 14:20:57;;;;;;;3.83;3.60;;;;;;;;;;5143087;27;20502;-78
2023/03/16 14:23:35;;;;;;;4.03;3.53;;;;;;;;;;5142919;27;20434;-77
2023/03/16 14:26:08;;;;;;;4.10;3.53;;;;;;;;;;5141747;27;20823;-76
2023/03/16 14:28:37;;;;;;;4.20;3.63;;;;;;;;;;5139316;27;20465;-77
2023/03/16 14:31:16;;;;;;;4.50;4.10;;;;;;;;;;5138753;27;20498;-77
2023/03/16 14:34:06;;;;;;;3.80;3.40;;;;;;;;;;5141506;27;20466;-76
2023/03/16 14:39:32;;;;;;;4.37;3.90;;;;;;;;;;5141944;27;20438;-78
2023/03/16 14:42:05;;;;;;;6.93;6.10;;;;;;;;;;5144476;27;20422;-77
2023/03/16 14:44:39;;;;;;;3.60;3.27;;;;;;;;;;5144293;27;20461;-77
2023/03/16 14:47:11;;;;;;;6.20;3.50;;;;;;;;;;5144696;27;20496;-77
2023/03/16 14:50:07;;;;;;;3.67;3.37;;;;;;;;;;5145253;27;20552;-77
2023/03/16 14:52:50;;;;;;;3.73;3.43;;;;;;;;;;5146929;27;20499;-78
2023/03/16 14:55:19;;;;;;;4.37;3.97;;;;;;;;;;5145063;27;20462;-77
2023/03/16 14:57:52;;;;;;;4.03;3.73;;;;;;;;;;5145751;27;20510;-76
2023/03/16 15:00:22;;;;;;;3.80;2.93;;;;;;;;;;5145020;27;20478;-77
2023/03/16 15:03:04;;;;;;;4.13;3.50;;;;;;;;;;5145081;27;20662;-75
2023/03/16 15:05:40;;;;;;;7.07;3.27;;;;;;;;;;5145096;27;20519;-76
2023/03/16 15:08:17;;;;;;;2.77;2.57;;;;;;;;;;5144228;27;20482;-77
2023/03/16 15:10:55;;;;;;;4.87;3.70;;;;;;;;;;5144467;27;20477;-77
2023/03/16 15:13:51;;;;;;;5.03;4.23;;;;;;;;;;5143434;27;20496;-78
2023/03/16 15:16:23;;;;;;;5.50;3.90;;;;;;;;;;5139657;27;20479;-77
2023/03/16 15:19:00;;;;;;;4.07;3.67;;;;;;;;;;5117477;27;20439;-77
2023/03/16 15:21:34;;;;;;;5.90;4.50;;;;;;;;;;5118909;28;20447;-78
2023/03/16 15:24:24;;;;;;;;;;;;;;;;;;;;;
2023/03/16 15:27:03;;;;;;;4.30;3.90;;;;;;;;;;5118504;28;20859;-77
2023/03/16 15:29:35;;;;;;;4.70;4.30;;;;;;;;;;5117882;28;20844;-77
2023/03/16 15:32:06;;;;;;;4.57;4.17;;;;;;;;;;5117274;28;20489;-77
2023/03/16 15:34:45;;;;;;;4.90;4.50;;;;;;;;;;5117418;27;20478;-77
2023/03/16 15:37:32;;;;;;;;;;;;;;;;;;;;;
2023/03/16 15:40:19;;;;;;;3.50;3.20;;;;;;;;;;5116978;28;20424;-78
2023/03/16 15:42:57;;;;;;;3.37;3.07;;;;;;;;;;5117093;27;20447;-77
2023/03/16 15:45:37;;;;;;;;;;;;;;;;;;;;;
2023/03/16 15:48:07;;;;;;;3.60;3.30;;;;;;;;;;5117687;28;20992;-77
2023/03/16 15:50:39;;;;;;;4.03;3.40;;;;;;;;;;5118036;28;20461;-77
2023/03/16 15:53:17;;;;;;;6.43;3.90;;;;;;;;;;5117193;27;20477;-78
2023/03/16 15:55:57;;;;;;;3.50;3.20;;;;;;;;;;5117055;28;20462;-77
2023/03/16 15:58:42;;;;;;;2.50;2.40;;;;;;;;;;5117649;27;20458;-77
2023/03/16 16:01:21;;;;;;;6.00;2.50;;;;;;;;;;5116774;27;20819;-78
2023/03/16 16:04:00;;;;;;;4.77;2.93;;;;;;;;;;5116515;27;20469;-78